createdAt,value
2018-08-03T00:00:24.494Z,26.26
2018-08-03T00:01:24.480Z,26.21
2018-08-03T00:02:24.474Z,26.23
2018-08-03T00:03:24.466Z,26.12
2018-08-03T00:04:24.515Z,26.10
2018-08-03T00:05:25.276Z,26.10
2018-08-03T00:06:24.430Z,26.15
2018-08-03T00:07:24.414Z,26.12
2018-08-03T00:08:24.424Z,26.02
2018-08-03T00:09:24.468Z,26.05
2018-08-03T00:10:24.386Z,26.06
2018-08-03T00:11:24.375Z,26.05
2018-08-03T00:12:24.433Z,25.99
2018-08-03T00:13:24.360Z,25.94
2018-08-03T00:14:24.344Z,25.91
2018-08-03T00:15:24.410Z,25.87
2018-08-03T00:16:24.325Z,25.85
2018-08-03T00:17:24.317Z,25.75
2018-08-03T00:18:24.301Z,25.75
2018-08-03T00:19:24.299Z,25.75
2018-08-03T00:20:24.345Z,25.73
2018-08-03T00:21:24.269Z,25.55
2018-08-03T00:22:24.266Z,25.55
2018-08-03T00:23:24.250Z,25.61
2018-08-03T00:24:24.247Z,25.52
2018-08-03T00:25:24.297Z,25.64
2018-08-03T00:26:24.778Z,25.58
2018-08-03T00:27:24.208Z,25.57
2018-08-03T00:28:24.196Z,25.61
2018-08-03T00:29:24.186Z,25.61
2018-08-03T00:30:24.241Z,25.61
2018-08-03T00:31:24.167Z,25.57
2018-08-03T00:32:24.161Z,25.50
2018-08-03T00:33:24.152Z,25.54
2018-08-03T00:34:24.143Z,25.43
2018-08-03T00:35:24.183Z,25.52
2018-08-03T00:36:24.119Z,25.47
2018-08-03T00:37:24.106Z,25.45
2018-08-03T00:38:24.096Z,25.38
2018-08-03T00:39:24.084Z,25.39
2018-08-03T00:40:24.136Z,25.33
2018-08-03T00:41:24.062Z,25.42
2018-08-03T00:42:24.063Z,25.33
2018-08-03T00:43:24.056Z,25.36
2018-08-03T00:44:24.031Z,25.35
2018-08-03T00:45:24.092Z,25.35
2018-08-03T00:46:24.009Z,25.35
2018-08-03T00:47:24.774Z,25.36
2018-08-03T00:48:23.987Z,25.25
2018-08-03T00:49:23.976Z,25.20
2018-08-03T00:50:24.031Z,25.18
2018-08-03T00:51:23.974Z,25.09
2018-08-03T00:52:23.948Z,25.08
2018-08-03T00:53:23.934Z,24.98
2018-08-03T00:54:23.925Z,24.96
2018-08-03T00:55:23.978Z,25.02
2018-08-03T00:56:23.903Z,25.03
2018-08-03T00:57:23.892Z,24.91
2018-08-03T00:58:23.884Z,24.88
2018-08-03T00:59:23.868Z,24.99
2018-08-03T01:00:23.936Z,24.78
2018-08-03T01:01:23.857Z,24.85
2018-08-03T01:02:23.843Z,24.91
2018-08-03T01:03:23.831Z,24.81
2018-08-03T01:04:23.818Z,24.77
2018-08-03T01:05:23.883Z,24.73
2018-08-03T01:06:23.812Z,24.76
2018-08-03T01:07:23.787Z,24.78
2018-08-03T01:08:24.283Z,24.81
2018-08-03T01:09:23.777Z,24.81
2018-08-03T01:10:23.831Z,24.90
2018-08-03T01:11:23.767Z,24.85
2018-08-03T01:12:23.735Z,24.90
2018-08-03T01:13:23.723Z,24.83
2018-08-03T01:14:23.715Z,24.84
2018-08-03T01:15:23.771Z,24.87
2018-08-03T01:16:23.698Z,24.80
2018-08-03T01:17:23.682Z,24.69
2018-08-03T01:18:23.681Z,24.81
2018-08-03T01:19:23.680Z,24.77
2018-08-03T01:20:23.726Z,24.64
2018-08-03T01:21:23.637Z,24.60
2018-08-03T01:22:23.635Z,24.52
2018-08-03T01:23:23.619Z,24.55
2018-08-03T01:24:23.618Z,24.52
2018-08-03T01:25:23.662Z,24.49
2018-08-03T01:26:23.585Z,24.47
2018-08-03T01:27:23.579Z,24.37
2018-08-03T01:28:23.563Z,24.37
2018-08-03T01:29:24.317Z,24.32
2018-08-03T01:30:23.607Z,24.32
2018-08-03T01:31:31.641Z,24.12
2018-08-03T01:32:31.659Z,24.21
2018-08-03T01:33:31.659Z,24.24
2018-08-03T01:34:31.664Z,24.18
2018-08-03T01:35:31.735Z,24.20
2018-08-03T01:36:23.485Z,24.20
2018-08-03T01:37:23.465Z,24.18
2018-08-03T01:38:23.455Z,24.15
2018-08-03T01:39:23.449Z,24.13
2018-08-03T01:40:23.505Z,24.18
2018-08-03T01:41:32.488Z,24.20
2018-08-03T01:42:23.419Z,24.15
2018-08-03T01:43:23.405Z,24.20
2018-08-03T01:44:23.397Z,24.16
2018-08-03T01:45:23.455Z,24.22
2018-08-03T01:46:23.378Z,24.20
2018-08-03T01:47:23.394Z,24.16
2018-08-03T01:48:23.358Z,24.16
2018-08-03T01:49:23.347Z,24.18
2018-08-03T01:50:23.399Z,24.16
2018-08-03T01:51:23.324Z,24.15
2018-08-03T01:52:23.311Z,24.12
2018-08-03T01:53:23.316Z,24.03
2018-08-03T01:54:23.294Z,24.05
2018-08-03T01:55:23.359Z,24.03
2018-08-03T01:56:23.336Z,24.06
2018-08-03T01:57:23.260Z,24.09
2018-08-03T01:58:23.250Z,24.05
2018-08-03T01:59:23.243Z,24.08
2018-08-03T02:00:23.228Z,23.95
2018-08-03T02:01:23.287Z,23.87
2018-08-03T02:02:24.984Z,23.91
2018-08-03T02:03:23.252Z,23.90
2018-08-03T02:04:23.202Z,23.87
2018-08-03T02:05:23.180Z,23.91
2018-08-03T02:06:23.230Z,23.93
2018-08-03T02:07:23.153Z,23.85
2018-08-03T02:08:23.142Z,23.84
2018-08-03T02:09:23.139Z,23.87
2018-08-03T02:10:23.123Z,23.93
2018-08-03T02:11:23.178Z,23.79
2018-08-03T02:12:23.100Z,23.88
2018-08-03T02:13:23.100Z,23.91
2018-08-03T02:14:23.079Z,23.84
2018-08-03T02:15:23.067Z,23.78
2018-08-03T02:16:23.128Z,23.80
2018-08-03T02:17:23.053Z,23.83
2018-08-03T02:18:23.039Z,23.83
2018-08-03T02:19:23.025Z,23.84
2018-08-03T02:20:23.022Z,23.78
2018-08-03T02:21:23.072Z,23.78
2018-08-03T02:22:23.000Z,23.70
2018-08-03T02:23:23.490Z,23.72
2018-08-03T02:24:22.975Z,23.80
2018-08-03T02:25:22.967Z,23.70
2018-08-03T02:26:23.028Z,23.70
2018-08-03T02:27:22.945Z,23.65
2018-08-03T02:28:22.939Z,23.70
2018-08-03T02:29:22.925Z,23.73
2018-08-03T02:30:22.923Z,23.57
2018-08-03T02:31:22.973Z,23.58
2018-08-03T02:32:22.895Z,23.58
2018-08-03T02:33:22.882Z,23.60
2018-08-03T02:34:22.881Z,23.63
2018-08-03T02:35:22.870Z,23.58
2018-08-03T02:36:22.930Z,23.57
2018-08-03T02:37:22.839Z,23.60
2018-08-03T02:38:22.834Z,23.55
2018-08-03T02:39:22.822Z,23.54
2018-08-03T02:40:22.818Z,23.53
2018-08-03T02:41:22.867Z,23.55
2018-08-03T02:42:22.792Z,23.50
2018-08-03T02:43:22.776Z,23.51
2018-08-03T02:44:23.486Z,23.57
2018-08-03T02:45:22.759Z,23.51
2018-08-03T02:46:22.814Z,23.55
2018-08-03T02:47:22.741Z,23.54
2018-08-03T02:48:22.732Z,23.58
2018-08-03T02:49:22.726Z,23.51
2018-08-03T02:50:22.703Z,23.53
2018-08-03T02:51:22.764Z,23.51
2018-08-03T02:52:22.684Z,23.47
2018-08-03T02:53:22.673Z,23.51
2018-08-03T02:54:22.667Z,23.54
2018-08-03T02:55:22.659Z,23.50
2018-08-03T02:56:22.706Z,23.43
2018-08-03T02:57:22.631Z,23.48
2018-08-03T02:58:22.628Z,23.42
2018-08-03T02:59:22.614Z,23.43
2018-08-03T03:00:22.599Z,23.31
2018-08-03T03:01:22.657Z,23.43
2018-08-03T03:02:22.587Z,23.38
2018-08-03T03:03:22.568Z,23.32
2018-08-03T03:04:22.571Z,23.27
2018-08-03T03:05:23.486Z,23.27
2018-08-03T03:06:22.649Z,23.31
2018-08-03T03:07:22.556Z,23.20
2018-08-03T03:08:22.516Z,23.22
2018-08-03T03:09:22.507Z,23.25
2018-08-03T03:10:22.512Z,23.23
2018-08-03T03:11:22.551Z,23.23
2018-08-03T03:12:22.482Z,23.25
2018-08-03T03:13:22.470Z,23.22
2018-08-03T03:14:22.457Z,23.22
2018-08-03T03:15:22.448Z,23.27
2018-08-03T03:16:22.493Z,23.27
2018-08-03T03:17:22.419Z,23.23
2018-08-03T03:18:22.412Z,23.17
2018-08-03T03:19:22.432Z,23.25
2018-08-03T03:20:22.388Z,23.23
2018-08-03T03:21:22.446Z,23.20
2018-08-03T03:22:22.379Z,23.32
2018-08-03T03:23:22.362Z,23.25
2018-08-03T03:24:22.360Z,23.27
2018-08-03T03:25:22.336Z,23.27
2018-08-03T03:26:22.557Z,23.22
2018-08-03T03:27:22.326Z,23.20
2018-08-03T03:28:22.308Z,23.20
2018-08-03T03:29:22.296Z,23.19
2018-08-03T03:30:22.289Z,23.09
2018-08-03T03:31:22.368Z,23.17
2018-08-03T03:32:22.266Z,23.05
2018-08-03T03:33:22.292Z,23.12
2018-08-03T03:34:22.241Z,23.09
2018-08-03T03:35:22.236Z,23.05
2018-08-03T03:36:22.301Z,23.04
2018-08-03T03:37:22.216Z,23.02
2018-08-03T03:38:22.200Z,23.01
2018-08-03T03:39:22.191Z,23.10
2018-08-03T03:40:22.243Z,23.04
2018-08-03T03:41:22.166Z,23.01
2018-08-03T03:42:22.222Z,23.12
2018-08-03T03:43:22.154Z,23.01
2018-08-03T03:44:22.163Z,23.05
2018-08-03T03:45:22.143Z,23.05
2018-08-03T03:46:22.119Z,23.01
2018-08-03T03:47:22.561Z,23.02
2018-08-03T03:48:22.092Z,23.05
2018-08-03T03:49:22.087Z,23.02
2018-08-03T03:50:22.075Z,23.02
2018-08-03T03:51:22.061Z,23.13
2018-08-03T03:52:22.121Z,23.05
2018-08-03T03:53:22.042Z,22.98
2018-08-03T03:54:22.039Z,23.02
2018-08-03T03:55:22.022Z,23.07
2018-08-03T03:56:22.022Z,23.00
2018-08-03T03:57:22.064Z,22.97
2018-08-03T03:58:21.985Z,22.91
2018-08-03T03:59:21.991Z,22.85
2018-08-03T04:00:21.972Z,22.82
2018-08-03T04:01:21.975Z,22.86
2018-08-03T04:02:22.022Z,22.82
2018-08-03T04:03:21.951Z,22.77
2018-08-03T04:04:21.973Z,22.86
2018-08-03T04:05:21.911Z,22.70
2018-08-03T04:06:21.911Z,22.73
2018-08-03T04:07:21.966Z,22.68
2018-08-03T04:08:22.510Z,22.75
2018-08-03T04:09:21.878Z,22.76
2018-08-03T04:10:21.856Z,22.80
2018-08-03T04:11:21.848Z,22.73
2018-08-03T04:12:21.913Z,22.73
2018-08-03T04:13:22.480Z,22.72
2018-08-03T04:14:21.816Z,22.72
2018-08-03T04:15:21.809Z,22.72
2018-08-03T04:16:21.792Z,22.77
2018-08-03T04:17:21.851Z,22.77
2018-08-03T04:18:21.773Z,22.75
2018-08-03T04:19:21.765Z,22.75
2018-08-03T04:20:21.753Z,22.79
2018-08-03T04:21:21.743Z,22.75
2018-08-03T04:22:21.795Z,22.82
2018-08-03T04:23:21.720Z,22.82
2018-08-03T04:24:21.707Z,22.85
2018-08-03T04:25:21.699Z,22.83
2018-08-03T04:26:21.688Z,22.83
2018-08-03T04:27:21.751Z,22.80
2018-08-03T04:28:21.665Z,22.83
2018-08-03T04:29:22.484Z,22.83
2018-08-03T04:30:21.645Z,22.85
2018-08-03T04:31:21.648Z,22.88
2018-08-03T04:32:21.695Z,22.86
2018-08-03T04:33:21.619Z,22.75
2018-08-03T04:34:21.601Z,22.80
2018-08-03T04:35:21.590Z,22.75
2018-08-03T04:36:21.579Z,22.85
2018-08-03T04:37:21.637Z,22.79
2018-08-03T04:38:21.560Z,22.80
2018-08-03T04:39:21.572Z,22.82
2018-08-03T04:40:21.535Z,22.86
2018-08-03T04:41:21.526Z,22.75
2018-08-03T04:42:21.640Z,22.83
2018-08-03T04:43:22.486Z,22.83
2018-08-03T04:44:21.501Z,22.86
2018-08-03T04:45:21.485Z,22.88
2018-08-03T04:46:21.485Z,22.86
2018-08-03T04:47:21.531Z,22.86
2018-08-03T04:48:21.453Z,22.90
2018-08-03T04:49:21.444Z,22.90
2018-08-03T04:50:25.979Z,22.94
2018-08-03T04:51:21.422Z,22.88
2018-08-03T04:52:21.476Z,22.77
2018-08-03T04:53:21.402Z,22.90
2018-08-03T04:54:21.388Z,22.94
2018-08-03T04:55:21.377Z,22.92
2018-08-03T04:56:21.369Z,22.94
2018-08-03T04:57:21.427Z,22.95
2018-08-03T04:58:21.357Z,22.95
2018-08-03T04:59:21.336Z,22.97
2018-08-03T05:00:21.327Z,23.04
2018-08-03T05:01:21.319Z,23.02
2018-08-03T05:02:29.499Z,23.09
2018-08-03T05:03:29.808Z,23.02
2018-08-03T05:04:21.293Z,23.07
2018-08-03T05:05:28.814Z,23.10
2018-08-03T05:06:21.260Z,23.20
2018-08-03T05:07:21.329Z,23.16
2018-08-03T05:08:21.244Z,23.12
2018-08-03T05:09:21.233Z,23.09
2018-08-03T05:10:21.224Z,23.10
2018-08-03T05:11:21.218Z,23.10
2018-08-03T05:12:21.259Z,23.05
2018-08-03T05:13:21.194Z,23.01
2018-08-03T05:14:21.239Z,23.09
2018-08-03T05:15:21.178Z,23.09
2018-08-03T05:16:21.157Z,23.00
2018-08-03T05:17:21.240Z,23.07
2018-08-03T05:18:21.139Z,23.10
2018-08-03T05:19:21.128Z,23.23
2018-08-03T05:20:21.115Z,23.23
2018-08-03T05:21:21.105Z,23.28
2018-08-03T05:22:21.095Z,23.27
2018-08-03T05:23:21.157Z,23.32
2018-08-03T05:24:21.655Z,23.40
2018-08-03T05:25:29.276Z,23.54
